createdAt,value
2018-07-12T00:00:01.991Z,40.67
2018-07-12T00:03:04.276Z,44.50
2018-07-12T00:06:06.630Z,41.50
2018-07-12T00:09:09.012Z,40.33
2018-07-12T00:12:11.400Z,43.37
2018-07-12T00:15:13.719Z,41.43
2018-07-12T00:18:16.045Z,40.10
2018-07-12T00:21:18.401Z,45.67
2018-07-12T00:24:20.668Z,41.90
2018-07-12T00:27:22.971Z,41.33
2018-07-12T00:30:25.315Z,46.43
2018-07-12T00:33:27.800Z,44.50
2018-07-12T00:36:30.071Z,41.83
2018-07-12T00:39:32.385Z,48.10
2018-07-12T00:42:34.663Z,49.20
2018-07-12T00:45:36.978Z,42.17
2018-07-12T00:48:39.263Z,44.10
2018-07-12T00:51:41.593Z,51.40
2018-07-12T00:54:44.174Z,60.50
2018-07-12T00:57:46.493Z,61.43
2018-07-12T01:00:48.768Z,70.33
2018-07-12T01:03:51.076Z,51.93
2018-07-12T01:06:53.422Z,64.50
2018-07-12T01:09:55.797Z,53.93
2018-07-12T01:12:58.073Z,61.53
2018-07-12T01:16:00.511Z,55.60
2018-07-12T01:19:02.869Z,67.07
2018-07-12T01:22:05.332Z,74.33
2018-07-12T01:25:07.687Z,68.67
2018-07-12T01:28:09.978Z,79.60
2018-07-12T01:31:12.386Z,91.37
2018-07-12T01:34:14.804Z,91.30
2018-07-12T01:37:17.147Z,93.83
2018-07-12T01:40:19.567Z,83.47
2018-07-12T01:43:22.042Z,92.37
2018-07-12T01:46:24.317Z,85.80
2018-07-12T01:49:26.682Z,106.67
2018-07-12T01:52:28.999Z,95.43
2018-07-12T01:55:31.388Z,97.80
2018-07-12T01:58:33.829Z,84.33
2018-07-12T02:01:36.202Z,92.67
2018-07-12T02:04:38.593Z,89.50
2018-07-12T02:07:41.003Z,75.00
2018-07-12T02:10:43.403Z,88.80
2018-07-12T02:13:45.732Z,95.30
2018-07-12T02:16:48.068Z,84.57
2018-07-12T02:19:50.489Z,82.37
2018-07-12T02:22:53.144Z,75.17
2018-07-12T02:25:55.542Z,78.90
2018-07-12T02:28:57.851Z,75.17
2018-07-12T02:32:00.148Z,85.00
2018-07-12T02:35:02.822Z,90.47
2018-07-12T02:38:05.105Z,89.93
2018-07-12T02:41:07.360Z,99.67
2018-07-12T02:44:09.764Z,92.33
2018-07-12T02:47:12.079Z,113.37
2018-07-12T02:50:14.394Z,111.70
2018-07-12T02:53:16.758Z,102.30
2018-07-12T02:56:19.080Z,116.57
2018-07-12T02:59:21.508Z,85.63
2018-07-12T03:02:23.915Z,76.83
2018-07-12T03:05:26.200Z,83.77
2018-07-12T03:08:28.618Z,94.40
2018-07-12T03:11:30.942Z,82.63
2018-07-12T03:14:33.399Z,92.07
2018-07-12T03:17:35.869Z,81.43
2018-07-12T03:20:38.214Z,76.83
2018-07-12T03:23:40.641Z,84.60
2018-07-12T03:26:42.915Z,71.33
2018-07-12T03:29:45.274Z,68.47
2018-07-12T03:32:47.629Z,68.17
2018-07-12T03:35:50.118Z,66.30
2018-07-12T03:38:52.478Z,69.50
2018-07-12T03:41:54.832Z,58.70
2018-07-12T03:44:57.215Z,61.13
2018-07-12T03:47:59.614Z,66.47
2018-07-12T03:51:02.006Z,64.63
2018-07-12T03:54:04.496Z,66.63
2018-07-12T03:57:06.914Z,58.20
2018-07-12T04:00:09.349Z,48.33
2018-07-12T04:03:11.645Z,56.57
2018-07-12T04:06:14.005Z,65.50
2018-07-12T04:09:16.445Z,56.37
2018-07-12T04:12:18.753Z,59.67
2018-07-12T04:15:21.180Z,60.40
2018-07-12T04:18:23.438Z,59.63
2018-07-12T04:21:25.853Z,67.10
2018-07-12T04:24:28.200Z,62.90
2018-07-12T04:27:30.719Z,66.33
2018-07-12T04:30:33.066Z,64.10
2018-07-12T04:33:35.401Z,59.37
2018-07-12T04:36:37.931Z,57.77
2018-07-12T04:39:40.290Z,56.90
2018-07-12T04:42:42.671Z,60.20
2018-07-12T04:45:44.965Z,52.77
2018-07-12T04:48:47.271Z,49.37
2018-07-12T04:51:50.692Z,57.30
2018-07-12T04:54:52.984Z,58.33
2018-07-12T04:57:55.367Z,54.30
2018-07-12T05:00:57.776Z,54.03
2018-07-12T05:04:00.200Z,53.60
2018-07-12T05:07:02.599Z,54.00
2018-07-12T05:10:04.911Z,54.20
2018-07-12T05:13:07.309Z,63.30
2018-07-12T05:16:09.734Z,60.33
2018-07-12T05:19:12.059Z,57.03
2018-07-12T05:22:14.428Z,77.53
2018-07-12T05:25:16.841Z,396.20
2018-07-12T05:28:19.220Z,88.40
2018-07-12T05:31:21.556Z,51.90
2018-07-12T05:34:23.939Z,64.33
2018-07-12T05:37:27.584Z,63.40
2018-07-12T05:40:31.276Z,80.43
2018-07-12T05:43:34.974Z,68.47
2018-07-12T05:46:38.652Z,70.03
2018-07-12T05:49:42.195Z,80.70
2018-07-12T05:52:45.776Z,74.40
2018-07-12T05:55:49.380Z,81.23
2018-07-12T05:58:53.027Z,72.53
2018-07-12T06:02:07.873Z,72.10
2018-07-12T06:05:11.520Z,69.57
2018-07-12T06:08:15.110Z,56.37
2018-07-12T06:11:18.835Z,53.23
2018-07-12T06:14:22.468Z,51.13
2018-07-12T06:17:26.267Z,38.93
2018-07-12T06:20:29.890Z,41.30
2018-07-12T06:23:33.588Z,36.00
2018-07-12T06:26:37.276Z,38.60
2018-07-12T06:29:40.956Z,40.10
2018-07-12T06:32:44.697Z,38.87
2018-07-12T06:35:48.345Z,44.67
2018-07-12T06:38:51.962Z,36.47
2018-07-12T06:41:55.736Z,35.43
2018-07-12T06:44:59.496Z,35.00
2018-07-12T06:48:03.110Z,41.07
2018-07-12T06:51:06.851Z,47.93
2018-07-12T06:54:10.511Z,44.63
2018-07-12T06:57:14.222Z,47.83
2018-07-12T07:00:17.881Z,49.07
2018-07-12T07:03:21.487Z,57.77
2018-07-12T07:06:25.229Z,60.13
2018-07-12T07:09:28.866Z,58.37
2018-07-12T07:12:32.522Z,64.53
2018-07-12T07:15:36.126Z,65.67
2018-07-12T07:18:39.812Z,61.30
2018-07-12T07:21:43.352Z,55.13
2018-07-12T07:24:47.021Z,52.73
2018-07-12T07:27:50.603Z,49.80
2018-07-12T07:30:54.331Z,47.50
2018-07-12T07:33:57.930Z,35.10
2018-07-12T07:37:01.577Z,37.37
2018-07-12T07:40:05.306Z,34.50
2018-07-12T07:43:09.096Z,44.70
2018-07-12T07:46:12.693Z,26.43
2018-07-12T07:49:16.358Z,22.27
2018-07-12T07:52:20.052Z,19.60
2018-07-12T07:55:23.670Z,22.80
2018-07-12T07:58:27.213Z,19.83
2018-07-12T08:01:30.914Z,19.97
2018-07-12T08:04:34.513Z,16.00
2018-07-12T08:07:38.240Z,21.20
2018-07-12T08:10:44.948Z,15.90
2018-07-12T08:13:49.426Z,15.97
2018-07-12T08:16:53.159Z,17.97
2018-07-12T08:19:56.904Z,16.67
2018-07-12T08:23:00.725Z,19.27
2018-07-12T08:26:04.459Z,22.53
2018-07-12T08:29:08.073Z,16.63
2018-07-12T08:32:11.823Z,14.80
2018-07-12T08:35:15.419Z,17.00
2018-07-12T08:38:19.056Z,13.70
2018-07-12T08:41:22.697Z,19.27
2018-07-12T08:44:26.367Z,16.30
2018-07-12T08:47:30.019Z,17.63
2018-07-12T08:50:33.817Z,15.80
2018-07-12T08:53:37.501Z,15.40
2018-07-12T08:56:41.712Z,18.07
2018-07-12T08:59:45.497Z,17.63
2018-07-12T09:02:49.314Z,15.23
2018-07-12T09:05:52.898Z,17.33
2018-07-12T09:08:56.693Z,18.87
2018-07-12T09:12:00.308Z,11.27
2018-07-12T09:15:04.092Z,11.23
2018-07-12T09:18:07.694Z,12.90
2018-07-12T09:21:11.432Z,12.73
2018-07-12T09:24:15.131Z,20.53
2018-07-12T09:27:18.773Z,9.90
2018-07-12T09:30:22.417Z,22.77
2018-07-12T09:33:28.977Z,15.27
2018-07-12T09:36:32.789Z,14.33
2018-07-12T09:39:36.555Z,16.23
2018-07-12T09:42:40.204Z,15.80
2018-07-12T09:45:43.820Z,12.47
2018-07-12T09:48:48.884Z,10.00
2018-07-12T09:51:52.528Z,12.43
2018-07-12T09:54:56.159Z,10.00
2018-07-12T09:58:11.103Z,11.83
2018-07-12T10:01:19.928Z,15.80
2018-07-12T10:04:26.595Z,17.93
2018-07-12T10:07:31.622Z,20.70
2018-07-12T10:10:39.490Z,15.33
2018-07-12T10:13:51.274Z,20.30
2018-07-12T10:17:00.053Z,12.93
2018-07-12T10:20:04.995Z,7.40
2018-07-12T10:23:08.567Z,10.40
2018-07-12T10:26:12.273Z,10.70
2018-07-12T10:29:15.954Z,9.33
2018-07-12T10:32:19.565Z,8.97
2018-07-12T10:35:23.325Z,9.20
2018-07-12T10:38:26.975Z,15.00
2018-07-12T10:41:30.633Z,15.30
2018-07-12T10:44:34.290Z,10.77
2018-07-12T10:47:37.966Z,11.00
2018-07-12T10:50:41.678Z,11.17
2018-07-12T10:53:45.520Z,18.70
2018-07-12T10:56:49.144Z,13.80
2018-07-12T10:59:52.970Z,12.83
2018-07-12T11:02:56.695Z,12.03
2018-07-12T11:06:00.323Z,12.50
2018-07-12T11:09:04.831Z,16.53
2018-07-12T11:12:08.522Z,17.13
2018-07-12T11:15:12.320Z,14.40
2018-07-12T11:18:15.910Z,18.13
2018-07-12T11:21:19.577Z,11.43
2018-07-12T11:24:23.406Z,14.13
2018-07-12T11:27:27.818Z,12.43
2018-07-12T11:30:31.515Z,16.57
2018-07-12T11:33:38.157Z,16.30
2018-07-12T11:36:41.740Z,11.70
2018-07-12T11:39:45.455Z,10.23
2018-07-12T11:42:49.175Z,7.90
2018-07-12T11:45:52.878Z,11.83
2018-07-12T11:48:56.521Z,8.93
2018-07-12T11:52:00.220Z,9.70
2018-07-12T11:55:04.158Z,8.70
2018-07-12T11:58:07.812Z,8.13
2018-07-12T12:01:11.449Z,6.07
2018-07-12T12:04:15.082Z,8.90
2018-07-12T12:07:18.751Z,9.53
2018-07-12T12:10:22.440Z,5.10
2018-07-12T12:13:26.258Z,7.80
2018-07-12T12:16:30.179Z,7.00
2018-07-12T12:19:33.797Z,5.80
2018-07-12T12:22:37.435Z,5.67
2018-07-12T12:25:41.041Z,7.33
2018-07-12T12:28:44.729Z,5.57
2018-07-12T12:31:48.459Z,8.60
2018-07-12T12:34:52.162Z,4.93
2018-07-12T12:37:55.894Z,4.93
2018-07-12T12:40:59.606Z,6.73
2018-07-12T12:44:03.235Z,6.17
2018-07-12T12:47:06.897Z,20.50
2018-07-12T12:50:10.647Z,6.67
2018-07-12T12:53:14.319Z,7.13
2018-07-12T12:56:18.140Z,5.93
2018-07-12T12:59:21.820Z,7.33
2018-07-12T13:02:25.479Z,8.90
2018-07-12T13:05:29.099Z,7.93
2018-07-12T13:08:32.801Z,9.63
2018-07-12T13:11:36.867Z,9.23
2018-07-12T13:14:40.774Z,9.67
2018-07-12T13:17:44.474Z,9.83
2018-07-12T13:20:48.121Z,11.43
2018-07-12T13:23:51.927Z,11.10
2018-07-12T13:26:55.616Z,11.20
2018-07-12T13:29:59.427Z,10.47
2018-07-12T13:33:03.232Z,8.93
2018-07-12T13:36:06.945Z,8.67
2018-07-12T13:39:11.054Z,15.87
2018-07-12T13:42:14.787Z,10.13
2018-07-12T13:45:18.560Z,8.53
2018-07-12T13:48:22.237Z,16.00
2018-07-12T13:51:25.985Z,8.67
2018-07-12T13:54:29.567Z,7.50
2018-07-12T13:57:33.400Z,8.47
2018-07-12T14:00:37.220Z,9.03
2018-07-12T14:03:40.940Z,7.03
2018-07-12T14:06:44.610Z,11.67
2018-07-12T14:09:48.270Z,7.70
2018-07-12T14:12:51.956Z,10.83
2018-07-12T14:15:55.767Z,7.50
2018-07-12T14:18:59.600Z,9.10
2018-07-12T14:22:03.254Z,12.60
2018-07-12T14:25:07.083Z,11.93
2018-07-12T14:28:10.821Z,14.07
2018-07-12T14:31:14.525Z,13.43
2018-07-12T14:34:18.342Z,10.03
2018-07-12T14:37:22.057Z,12.07
2018-07-12T14:40:25.741Z,12.63
2018-07-12T14:43:29.632Z,9.80
2018-07-12T14:46:33.382Z,10.80
2018-07-12T14:49:37.061Z,16.40
2018-07-12T14:52:40.675Z,11.57
2018-07-12T14:55:44.402Z,10.73
2018-07-12T14:58:48.121Z,9.90
2018-07-12T15:01:51.832Z,7.73
2018-07-12T15:04:55.476Z,8.60
2018-07-12T15:07:59.180Z,7.23
2018-07-12T15:11:02.791Z,6.27
2018-07-12T15:14:06.876Z,7.90
2018-07-12T15:17:10.496Z,6.63
2018-07-12T15:20:14.117Z,8.63
2018-07-12T15:23:18.041Z,8.17
2018-07-12T15:26:21.770Z,6.10
2018-07-12T15:29:25.538Z,6.53
2018-07-12T15:32:29.151Z,11.57
2018-07-12T15:35:32.877Z,7.90
2018-07-12T15:38:36.575Z,9.80
2018-07-12T15:41:41.082Z,9.47
2018-07-12T15:44:44.812Z,6.40
2018-07-12T15:47:48.373Z,8.20
2018-07-12T15:50:52.153Z,6.20
2018-07-12T15:53:55.817Z,5.87
2018-07-12T15:56:59.627Z,6.73
2018-07-12T16:00:03.472Z,5.50
2018-07-12T16:03:07.110Z,20.50
2018-07-12T16:06:10.912Z,5.47
2018-07-12T16:09:14.563Z,5.83
2018-07-12T16:12:21.257Z,4.90
2018-07-12T16:15:24.938Z,8.73
2018-07-12T16:18:28.558Z,5.57
2018-07-12T16:21:32.426Z,4.77
2018-07-12T16:24:36.287Z,5.10
2018-07-12T16:27:40.028Z,5.10
2018-07-12T16:30:43.622Z,5.23
2018-07-12T16:33:47.312Z,5.10
2018-07-12T16:36:51.095Z,4.50
2018-07-12T16:39:54.964Z,6.80
2018-07-12T16:42:58.857Z,4.60
2018-07-12T16:46:02.621Z,4.20
2018-07-12T16:49:06.308Z,5.20
2018-07-12T16:52:09.927Z,4.60
2018-07-12T16:55:13.928Z,5.43
2018-07-12T16:58:17.566Z,8.33
2018-07-12T17:01:21.258Z,4.20
2018-07-12T17:04:24.984Z,4.40
2018-07-12T17:07:28.665Z,4.30
2018-07-12T17:10:32.461Z,3.80
2018-07-12T17:13:36.110Z,3.90
2018-07-12T17:16:39.783Z,4.30
2018-07-12T17:19:43.512Z,3.57
2018-07-12T17:22:47.283Z,8.77
2018-07-12T17:25:51.065Z,4.10
2018-07-12T17:28:54.704Z,5.53
2018-07-12T17:31:58.427Z,3.40
2018-07-12T17:35:02.257Z,3.50
2018-07-12T17:38:06.233Z,3.97
2018-07-12T17:41:10.057Z,4.70
2018-07-12T17:44:14.801Z,10.03
2018-07-12T17:47:18.619Z,3.43
2018-07-12T17:50:22.262Z,4.00
2018-07-12T17:53:25.911Z,4.53
2018-07-12T17:56:29.634Z,4.90
2018-07-12T17:59:33.409Z,4.37
2018-07-12T18:02:37.057Z,5.60
2018-07-12T18:05:40.861Z,5.13
2018-07-12T18:08:44.604Z,6.63
2018-07-12T18:11:48.297Z,7.00
2018-07-12T18:14:51.928Z,5.97
2018-07-12T18:17:55.750Z,7.80
2018-07-12T18:20:59.465Z,5.67
2018-07-12T18:24:03.457Z,6.77
2018-07-12T18:27:07.111Z,5.97
2018-07-12T18:30:10.813Z,7.50
2018-07-12T18:33:14.760Z,8.63
2018-07-12T18:36:18.385Z,11.33
2018-07-12T18:39:22.158Z,11.27
2018-07-12T18:42:25.895Z,6.17
2018-07-12T18:45:29.549Z,6.93
2018-07-12T18:48:33.220Z,9.73
2018-07-12T18:51:36.916Z,11.57
2018-07-12T18:54:40.853Z,7.27
2018-07-12T18:57:44.567Z,10.30
2018-07-12T19:00:48.220Z,11.20
2018-07-12T19:03:51.888Z,10.40
2018-07-12T19:06:55.584Z,7.27
2018-07-12T19:09:59.243Z,7.53
2018-07-12T19:13:03.007Z,10.00
2018-07-12T19:16:06.873Z,8.93
2018-07-12T19:19:10.598Z,8.90
2018-07-12T19:22:14.286Z,9.77
2018-07-12T19:25:18.085Z,9.20
2018-07-12T19:28:22.091Z,9.83
2018-07-12T19:31:25.733Z,12.30
2018-07-12T19:34:29.436Z,6.70
2018-07-12T19:37:33.190Z,10.50
2018-07-12T19:40:36.856Z,7.33
2018-07-12T19:43:40.538Z,9.97
2018-07-12T19:46:44.335Z,8.13
2018-07-12T19:49:47.836Z,17.47
2018-07-12T19:52:51.603Z,8.20
2018-07-12T19:55:55.338Z,9.27
2018-07-12T19:58:59.007Z,11.60
2018-07-12T20:02:02.743Z,9.23
2018-07-12T20:05:06.366Z,11.20
2018-07-12T20:08:10.173Z,9.57
2018-07-12T20:11:13.880Z,8.80
2018-07-12T20:14:17.534Z,10.50
2018-07-12T20:17:21.252Z,9.43
2018-07-12T20:20:24.980Z,9.53
2018-07-12T20:23:28.828Z,12.10
2018-07-12T20:26:32.685Z,9.27
2018-07-12T20:29:36.279Z,9.87
2018-07-12T20:32:40.041Z,11.03
2018-07-12T20:35:43.775Z,10.73
2018-07-12T20:38:47.593Z,10.40
2018-07-12T20:41:51.750Z,8.33
2018-07-12T20:44:55.545Z,10.63
2018-07-12T20:47:59.309Z,9.60
2018-07-12T20:51:02.974Z,12.80
2018-07-12T20:54:06.760Z,11.03
2018-07-12T20:57:10.552Z,8.47
2018-07-12T21:00:14.281Z,8.10
2018-07-12T21:03:17.945Z,11.10
2018-07-12T21:06:21.696Z,11.77
2018-07-12T21:09:25.519Z,8.97
2018-07-12T21:12:29.293Z,11.73
2018-07-12T21:15:33.136Z,12.73
2018-07-12T21:18:36.720Z,10.30
2018-07-12T21:21:40.439Z,10.63
2018-07-12T21:24:44.184Z,9.57
2018-07-12T21:27:47.893Z,12.20
2018-07-12T21:30:51.564Z,10.03
2018-07-12T21:33:55.174Z,10.27
2018-07-12T21:36:58.786Z,8.17
2018-07-12T21:40:02.455Z,9.47
2018-07-12T21:43:06.331Z,8.60
2018-07-12T21:46:10.268Z,11.93
2018-07-12T21:49:14.040Z,11.70
2018-07-12T21:52:17.597Z,15.50
2018-07-12T21:55:21.345Z,8.33
2018-07-12T21:58:25.001Z,11.33
2018-07-12T22:01:28.720Z,11.63
2018-07-12T22:04:32.394Z,11.70
2018-07-12T22:08:26.971Z,17.33
2018-07-12T22:11:30.676Z,9.63
2018-07-12T22:14:34.263Z,10.40
2018-07-12T22:17:37.880Z,15.97
2018-07-12T22:20:41.551Z,13.57
2018-07-12T22:23:45.300Z,17.87
2018-07-12T22:26:48.981Z,9.53
2018-07-12T22:29:52.683Z,22.13
2018-07-12T22:32:56.436Z,24.13
2018-07-12T22:36:00.028Z,11.77
2018-07-12T22:39:03.871Z,16.03
2018-07-12T22:42:07.594Z,12.90
2018-07-12T22:45:11.127Z,18.47
2018-07-12T22:48:14.848Z,24.90
2018-07-12T22:51:18.390Z,14.80
2018-07-12T22:54:22.066Z,18.80
2018-07-12T22:57:25.620Z,20.30
2018-07-12T23:00:29.250Z,18.50
2018-07-12T23:03:32.972Z,18.80
2018-07-12T23:06:36.612Z,18.50
2018-07-12T23:09:40.192Z,17.43
2018-07-12T23:12:43.851Z,18.20
2018-07-12T23:15:47.589Z,21.47
2018-07-12T23:18:51.215Z,19.80
2018-07-12T23:21:54.965Z,17.10
2018-07-12T23:24:58.741Z,16.83
2018-07-12T23:28:02.321Z,17.77
2018-07-12T23:31:05.860Z,18.80
2018-07-12T23:34:09.630Z,20.80
2018-07-12T23:37:13.251Z,24.70
2018-07-12T23:40:16.820Z,19.97
2018-07-12T23:43:20.495Z,23.23
2018-07-12T23:46:24.050Z,26.47
2018-07-12T23:49:27.607Z,23.07
2018-07-12T23:52:31.342Z,24.80
2018-07-12T23:55:35.182Z,22.60
2018-07-12T23:58:38.732Z,23.63
